Harwood, MD

6:35 PM EDT on September 02, 2014 (GMT -0400)
Birdsville | Change Station
CLOSE
Current Station
Personal Weather Station
Location: Harwood, MD
Elevation: 151 ft
Nearby Weather Stations

Elev 151 ft 38.90 °N, 76.60 °W | Updated 59 seconds ago

Clear
Clear
83.2 °F
Feels Like 91 °F
N
0.0
Wind Variable Wind from SSE
Gusts 6.0 mph

Today
High -- | Low -- °F
--% Chance of Precip.
Yesterday
High -- | Low -- °F
Precip. -- in
6:36 AM 7:35 PM
First Quarter, 55% visible
Pressure 29.87 in
Visibility 10.0 miles
Clouds Few 7000 ft
Heat Index 91 °F
Dew Point 75 °F
Humidity 77%
Rainfall 0.01 in
Snow Depth Not available.
UV 3 out of 12
Pollen 8.80 out of 12
Air Quality Not available.
Flu Activity Not available.
METAR KNAK 022054Z AUTO 17011KT 10SM FEW070 32/21 A2986 RMK AO2 SLP114 T03170206 56023 $

More Conditions Fewer Conditions

Pressure 29.87 in
Visibility 10.0 miles
Clouds Few 7000 ft
Heat Index 91 °F
Dew Point 75 °F
Humidity 77%
Rainfall 0.01 in
Snow Depth Not available.
UV 3 out of 12
Pollen 8.80 out of 12
Air Quality Not available.
Flu Activity Not available.
METAR KNAK 022054Z AUTO 17011KT 10SM FEW070 32/21 A2986 RMK AO2 SLP114 T03170206 56023 $

More Conditions Fewer Conditions

10-Day Weather Forecast

Almanac

Astronomy

Sep. 02, 2014 Rise Set
Actual Time 6:36 AM EDT 7:35 PM EDT
Civil Twilight 6:09 AM EDT 8:02 PM EDT
Nautical Twilight 5:36 AM EDT 8:34 PM EDT
Astronomical Twilight 5:02 AM EDT 9:08 PM EDT
Moon 2:14 PM EDT No Moon Set
Length of Visible Light 13h 53m
Length of Day
12h 58m
Tomorrow will be 2m 26s shorter.
First Quarter, 55% of the Moon is Illuminated
Today
First Quarter
Sep 8
Full
Sep 15
Last Quarter
Sep 24
New
Oct 1
First Quarter

Today's Extremes

State Highs State Lows

Community

WunderPhotos

Upload Photos

1,749,789 photos uploaded!

Nearby

Snow Depth

Station Depth Elevation
No new snow has been reported.

Earthquake Activity

City Distance Mag. Time & Date
No recent earthquake activity has been reported nearby.
Minimum magnitude displayed is 2.5.

Coastal Water Temperatures

Place Temperature
Cambridge, MD 80.1 °F
Tolchester Beach, MD 82.0 °F
Baltimore, MD 82.9 °F

Nearby Weather Stations